Station: Forrest  

  Atmospheric Gas Attenuation - ITU Rec 676-11   ----------------- dB/100km -----------------
Date Time Temp RH % AH g/m3 Dew Point Wind Direction Speed kph Gust kph Barometer mB Rainfall Since 9am 24GHz 47GHz 76GHz 122GHz 134GHz 241GHz
08/05 09:20 16 60 8.17 8.2 22 28 1035.1 0 18.5 25.4 38.0 99.3 91.9 315.6
08/05 09:10 15.9 59 7.99 7.9 26 33 1035.1 0 18.2 25.1 37.3 97.6 89.7 308.0
08/05 09:00 15.9 59 7.99 7.9 20 28 1035 0 18.2 25.1 37.3 97.6 89.7 307.9
08/05 08:50 15.6 59 7.85 7.6 20 24 1035 0 17.9 25.0 36.9 96.5 88.2 302.8
08/05 08:40 15.6 58 7.71 7.4 24 28 1035 0 17.6 24.8 36.4 95.0 86.4 296.6
08/05 08:30 15.6 58 7.71 7.4 17 22 1034.9 0 17.6 24.8 36.4 95.0 86.4 296.6
08/05 08:20 15.3 60 7.84 7.6 17 19 1035 0 17.9 25.1 37.0 96.7 88.4 303.5
08/05 08:10 15.2 61 7.92 7.7 19 20 1035 0 18.1 25.2 37.4 97.7 89.6 307.5
08/05 08:00 15.2 62 8.05 8 17 20 1034.8 0 18.3 25.4 37.9 99.0 91.2 313.3
08/05 07:50 15 62 7.95 7.8 19 20 1034.8 0 18.1 25.3 37.6 98.2 90.2 309.6
08/05 07:40 14.9 63 8.03 7.9 19 20 1034.7 0 18.3 25.5 37.9 99.2 91.3 313.6
08/05 07:30 14.7 66 8.31 8.4 15 19 1034.4 0 18.9 26.0 39.1 102.4 95.2 327.0
08/05 07:20 14.5 67 8.33 8.5 13 17 1034.4 0 19.0 26.0 39.3 102.8 95.7 328.8
08/05 07:10 14.3 69 8.48 8.7 15 17 1034.3 0 19.3 26.3 40.0 104.7 97.9 336.5
08/05 07:00 14.1 70 8.5 8.7 13 19 1034.2 0 19.3 26.4 40.2 105.2 98.4 338.3
08/05 06:50 13.9 72 8.63 8.9 11 13 1034.2 0 19.6 26.7 40.8 106.8 100.4 345.2
08/05 06:40 13.8 72 8.58 8.8 13 15 1034.2 0 19.5 26.7 40.7 106.4 99.9 343.3
08/05 06:30 13.6 73 8.59 8.9 13 15 1034 0 19.6 26.7 40.8 106.8 100.2 344.6
08/05 06:20 13.6 73 8.59 8.9 11 13 1034.1 0 19.6 26.7 40.8 106.8 100.2 344.6
08/05 06:10 13.5 73 8.54 8.8 11 13 1034.1 0 19.5 26.7 40.6 106.4 99.7 342.7
08/05 06:00 13.5 73 8.54 8.8 11 13 1033.8 0 19.5 26.7 40.6 106.4 99.7 342.6
08/05 05:50 13.5 73 8.54 8.8 13 13 1033.8 0 19.5 26.7 40.6 106.4 99.7 342.6
08/05 05:40 13.6 72 8.47 8.7 13 13 1033.7 0 19.3 26.5 40.3 105.5 98.6 338.9
08/05 05:30 13.6 72 8.47 8.7 15 17 1033.5 0 19.3 26.5 40.3 105.4 98.6 338.9
08/05 05:20 13.6 72 8.47 8.7 15 17 1033.5 0 19.3 26.5 40.3 105.4 98.6 338.9
08/05 05:10 13.6 71 8.36 8.4 15 17 1033.5 0 19.1 26.3 39.8 104.2 97.1 333.7
08/05 05:00 13.6 71 8.36 8.4 13 17 1033.4 0 19.1 26.3 39.8 104.2 97.1 333.7
08/05 04:50 13.7 70 8.29 8.3 15 17 1033.5 0 18.9 26.2 39.5 103.4 96.1 330.0
08/05 04:40 13.7 70 8.29 8.3 13 17 1033.5 0 18.9 26.2 39.5 103.4 96.1 330.0
08/05 04:30 13.7 70 8.29 8.3 17 20 1033.4 0 18.9 26.2 39.5 103.3 96.0 330.0
08/05 04:20 13.7 70 8.29 8.3 17 19 1033.4 0 18.9 26.2 39.5 103.3 96.0 330.0
08/05 04:10 13.7 69 8.17 8.1 15 17 1033.4 0 18.7 26.0 39.0 102.1 94.5 324.5
08/05 04:00 13.7 68 8.05 7.9 13 17 1033.2 0 18.4 25.8 38.5 100.8 92.9 318.9
08/05 03:50 13.7 68 8.05 7.9 11 11 1033.2 0 18.4 25.8 38.5 100.8 92.9 318.9
08/05 03:40 13.7 68 8.05 7.9 13 15 1033.3 0 18.4 25.8 38.5 100.8 92.9 318.9
08/05 03:30 13.8 68 8.1 8 13 17 1033.2 0 18.5 25.8 38.7 101.2 93.4 320.8
08/05 03:20 13.8 68 8.1 8 13 15 1033.3 0 18.5 25.8 38.7 101.2 93.4 320.8
08/05 03:10 13.8 68 8.1 8 13 15 1033.3 0 18.5 25.8 38.7 101.2 93.4 320.8
08/05 03:00 13.8 68 8.1 8 13 15 1033.1 0 18.5 25.8 38.7 101.2 93.4 320.7
08/05 02:50 13.9 68 8.15 8.1 15 17 1033.2 0 18.6 25.9 38.8 101.6 93.9 322.7
08/05 02:40 13.9 68 8.15 8.1 13 13 1033.3 0 18.6 25.9 38.8 101.6 93.9 322.7
08/05 02:30 13.8 68 8.1 8 13 15 1033.2 0 18.5 25.8 38.7 101.2 93.4 320.8
08/05 02:20 13.8 68 8.1 8 13 15 1033.4 0 18.5 25.8 38.7 101.2 93.4 320.8
08/05 02:10 13.8 68 8.1 8 13 13 1033.4 0 18.5 25.8 38.7 101.2 93.4 320.8
08/05 02:00 13.8 68 8.1 8 13 15 1033.2 0 18.5 25.8 38.7 101.2 93.4 320.8
08/05 01:50 13.8 68 8.1 8 13 13 1033.3 0 18.5 25.8 38.7 101.2 93.4 320.8
08/05 01:40 13.9 68 8.15 8.1 13 13 1033.3 0 18.6 25.9 38.8 101.6 93.9 322.7
08/05 01:30 14 68 8.2 8.2 17 20 1033.1 0 18.7 25.9 39.0 102.0 94.5 324.5
08/05 01:20 14 68 8.2 8.2 17 19 1033.1 0 18.7 25.9 39.0 102.0 94.5 324.5
08/05 01:10 13.9 70 8.39 8.5 17 19 1033.1 0 19.1 26.3 39.8 104.1 97.1 333.7
08/05 01:00 14 70 8.44 8.6 15 17 1033 0 19.2 26.3 39.9 104.5 97.6 335.6
08/05 00:50 14.1 69 8.37 8.5 15 17 1033.2 0 19.1 26.2 39.6 103.7 96.6 332.0
08/05 00:40 14.2 69 8.43 8.6 17 19 1033.2 0 19.2 26.3 39.8 104.2 97.3 334.3
08/05 00:30 14.2 69 8.43 8.6 17 20 1033.1 0 19.2 26.2 39.8 104.2 97.3 334.3
08/05 00:20 14.2 69 8.43 8.6 20 22 1033.2 0 19.2 26.3 39.8 104.2 97.3 334.3
08/05 00:10 14.2 69 8.43 8.6 17 20 1033.3 0 19.2 26.3 39.8 104.2 97.3 334.4
08/05 00:00 14.2 69 8.43 8.6 17 20 1033.2 0 19.2 26.3 39.8 104.2 97.3 334.3
07/05 23:50 14.2 69 8.43 8.6 17 19 1033.4 0 19.2 26.3 39.8 104.2 97.3 334.4
07/05 23:40 14.3 70 8.6 8.9 17 19 1033.4 0 19.5 26.5 40.4 105.9 99.4 341.9
07/05 23:30 14.3 70 8.6 8.9 15 19 1033.3 0 19.5 26.5 40.4 105.9 99.4 341.8
07/05 23:20 14.3 70 8.6 8.9 13 15 1033.5 0 19.5 26.5 40.5 105.9 99.4 341.9
07/05 23:10 14.4 69 8.53 8.8 15 17 1033.4 0 19.4 26.4 40.1 105.0 98.4 338.2
07/05 23:00 14.4 69 8.53 8.8 15 19 1033.4 0 19.4 26.4 40.1 105.0 98.4 338.2
07/05 22:50 14.4 68 8.41 8.6 17 19 1033.5 0 19.1 26.2 39.6 103.7 96.8 332.7
07/05 22:40 14.5 67 8.33 8.5 19 20 1033.5 0 19.0 26.0 39.3 102.7 95.6 328.6
07/05 22:30 14.6 66 8.26 8.3 17 22 1033.4 0 18.8 25.9 38.9 101.9 94.6 324.9
07/05 22:20 14.6 65 8.13 8.1 15 17 1033.5 0 18.5 25.7 38.4 100.5 92.9 319.0
07/05 22:10 14.7 63 7.93 7.7 17 19 1033.6 0 18.1 25.3 37.6 98.3 90.2 309.5
07/05 22:00 14.7 62 7.81 7.5 17 22 1033.5 0 17.8 25.1 37.1 97.0 88.6 304.1
07/05 21:50 14.7 61 7.68 7.3 20 22 1033.6 0 17.6 24.9 36.6 95.7 87.0 298.3
07/05 21:40 14.9 62 7.9 7.7 19 20 1033.7 0 18.0 25.2 37.4 97.7 89.6 307.4
07/05 21:30 15 61 7.82 7.5 19 26 1033.6 0 17.9 25.1 37.0 96.8 88.4 303.4
07/05 21:20 15.1 59 7.61 7.2 19 22 1033.7 0 17.4 24.7 36.2 94.5 85.6 293.7
07/05 21:10 15.2 57 7.4 6.7 20 22 1033.7 0 17.0 24.4 35.3 92.2 82.9 284.0
07/05 21:00 15.2 56 7.27 6.5 20 26 1033.5 0 16.7 24.2 34.8 90.9 81.2 278.3
07/05 20:50 15.1 55 7.1 6.1 17 19 1033.6 0 16.3 23.9 34.2 89.3 79.2 271.2
07/05 20:40 15 55 7.05 6 17 20 1033.5 0 16.2 23.9 34.1 88.9 78.7 269.3
07/05 20:30 14.9 55 7.01 6 19 28 1033.4 0 16.1 23.8 34.0 88.6 78.3 267.9
07/05 20:20 14.7 56 7.05 6 19 20 1033.5 0 16.2 24.0 34.2 89.2 79.0 270.3
07/05 20:10 14.7 56 7.05 6 20 24 1033.5 0 16.2 24.0 34.2 89.2 79.0 270.3
07/05 20:00 14.7 59 7.43 6.8 20 26 1033.4 0 17.0 24.5 35.6 93.1 83.8 287.1
07/05 19:50 14.7 61 7.68 7.3 20 22 1033.5 0 17.6 24.9 36.6 95.7 86.9 298.3
07/05 19:40 15.1 61 7.87 7.6 19 22 1033.5 0 18.0 25.1 37.2 97.2 88.9 305.3
07/05 19:30 15.3 60 7.84 7.6 26 33 1033.3 0 17.9 25.0 37.0 96.6 88.3 303.1
07/05 19:20 15.6 60 7.98 7.9 26 32 1033.3 0 18.2 25.1 37.4 97.7 89.8 308.2
07/05 19:10 15.7 61 8.16 8.2 24 28 1033.4 0 18.5 25.4 38.0 99.4 92.0 315.9
07/05 19:00 15.8 62 8.35 8.5 26 32 1033.2 0 18.9 25.7 38.7 101.3 94.3 324.0
07/05 18:50 15.8 62 8.35 8.5 1033.2 0 18.9 25.7 38.7 101.3 94.3 324.0
07/05 18:40 15.9 62 8.4 8.6 26 30 1033.2 0 19.0 25.7 38.8 101.7 94.8 325.9
07/05 18:30 16 62 8.45 8.7 28 35 1033 0 19.1 25.8 39.0 102.0 95.3 327.7
07/05 18:20 16.1 61 8.36 8.6 30 33 1033 0 18.9 25.6 38.6 101.0 94.0 323.2
07/05 18:10 16.2 58 8 7.9 28 33 1032.9 0 18.2 25.0 37.1 97.1 89.3 306.7
07/05 18:00 16.3 55 7.63 7.3 28 33 1032.7 0 17.4 24.4 35.7 93.2 84.5 290.0
07/05 17:50 16.3 55 7.63 7.3 28 32 1032.7 0 17.4 24.4 35.7 93.2 84.5 290.0
07/05 17:40 16.4 55 7.68 7.3 24 30 1032.5 0 17.5 24.4 35.8 93.6 85.0 291.7
07/05 17:30 16.6 54 7.63 7.3 30 39 1032.2 0 17.4 24.3 35.5 92.8 84.2 288.8
07/05 17:20 16.8 52 7.43 6.9 32 35 1032.3 0 17.0 23.9 34.7 90.6 81.5 279.4
07/05 17:10 16.8 51 7.29 6.6 17 22 1032.2 0 16.7 23.7 34.2 89.2 79.8 273.4
07/05 17:00 16.7 49 6.96 5.9 19 28 1032 0 16.0 23.2 33.0 86.0 75.8 259.6
07/05 16:50 16.6 49 6.92 5.9 19 22 1032.1 0 15.9 23.2 32.9 85.7 75.4 258.2

Last Refresh: 08-May-2026 11:04:10

Bureau of Meteorology